Time;durP1;ratioP1;P1;durP2;ratioP2;P2;SDS_P1;SDS_P2;PMS_P1;PMS_P2;Temp;Humidity;BMP_temperature;BMP_pressure;BME280_temperature;BME280_humidity;BME280_pressure;Samples;Min_cycle;Max_cycle;Signal;HPM_P1;HPM_P2
2021/01/03 00:01:52;;;;;;;160.20;55.95;;;;;;;2.13;100.00;101127.50;4991374;28;20050;-85
2021/01/03 00:04:18;;;;;;;162.18;57.90;;;;;;;2.12;100.00;101124.00;5008815;28;20026;-89
2021/01/03 00:06:44;;;;;;;172.98;59.83;;;;;;;2.12;100.00;101124.00;4998731;28;20380;-86
2021/01/03 00:09:10;;;;;;;163.88;59.78;;;;;;;2.11;100.00;101126.78;5021302;28;20080;-87
2021/01/03 00:11:38;;;;;;;170.80;59.40;;;;;;;2.11;100.00;101121.47;5003234;28;20064;-84
2021/01/03 00:14:05;;;;;;;176.10;62.33;;;;;;;2.11;100.00;101117.03;4983051;28;20082;-90
2021/01/03 00:16:31;;;;;;;172.52;61.58;;;;;;;2.12;100.00;101128.44;5000746;28;20038;-84
2021/01/03 00:18:56;;;;;;;180.77;62.28;;;;;;;2.11;100.00;101124.97;4977255;28;20041;-89
2021/01/03 00:21:22;;;;;;;180.43;63.55;;;;;;;2.10;100.00;101123.28;4967705;28;20397;-87
2021/01/03 00:23:47;;;;;;;182.77;61.10;;;;;;;2.09;100.00;101126.84;4979542;28;20038;-89
2021/01/03 00:26:12;;;;;;;180.98;67.47;;;;;;;2.11;100.00;101127.63;4980208;28;20434;-87
2021/01/03 00:28:38;;;;;;;195.82;68.47;;;;;;;2.12;100.00;101133.75;4986885;28;20061;-86
2021/01/03 00:31:03;;;;;;;199.27;72.45;;;;;;;2.11;100.00;101132.06;4985413;28;20065;-90
2021/01/03 00:33:29;;;;;;;193.23;70.55;;;;;;;2.12;100.00;101128.44;4965234;28;20062;-91
2021/01/03 00:35:54;;;;;;;190.93;65.15;;;;;;;2.11;100.00;101130.25;4996183;28;20108;-89
2021/01/03 00:38:20;;;;;;;184.93;66.28;;;;;;;2.09;100.00;101134.78;5024130;28;20041;-85
2021/01/03 00:40:46;;;;;;;188.07;66.63;;;;;;;2.09;100.00;101123.38;4997260;28;20132;-89
2021/01/03 00:43:14;;;;;;;185.52;67.00;;;;;;;2.10;100.00;101125.94;4994608;28;20057;-87
2021/01/03 00:45:40;;;;;;;198.63;66.90;;;;;;;2.05;100.00;101121.88;5011891;28;20034;-88
2021/01/03 00:48:07;;;;;;;190.27;70.72;;;;;;;2.11;100.00;101126.78;5009231;28;20040;-89
2021/01/03 00:50:33;;;;;;;197.32;71.38;;;;;;;2.12;100.00;101125.81;4992870;28;20917;-88
2021/01/03 00:52:58;;;;;;;189.50;67.15;;;;;;;2.11;100.00;101121.47;4994384;28;20052;-92
2021/01/03 00:55:24;;;;;;;180.90;66.57;;;;;;;2.11;100.00;101121.47;4990404;28;20045;-89
2021/01/03 00:57:50;;;;;;;181.38;62.75;;;;;;;2.10;100.00;101125.94;4992942;28;20038;-86
2021/01/03 01:00:29;;;;;;;177.43;61.78;;;;;;;2.10;100.00;101125.94;4975265;28;20026;-87
2021/01/03 01:02:55;;;;;;;185.82;63.83;;;;;;;2.07;100.00;101119.97;4991453;28;20057;-86
2021/01/03 01:05:21;;;;;;;186.05;66.30;;;;;;;2.05;100.00;101124.53;5000835;28;20042;-86
2021/01/03 01:07:47;;;;;;;182.85;64.57;;;;;;;2.06;100.00;101123.56;5008140;28;20044;-89
2021/01/03 01:10:19;;;;;;;182.80;62.17;;;;;;;2.08;100.00;101124.31;4991220;28;20042;-91
2021/01/03 01:12:45;;;;;;;185.60;63.45;;;;;;;2.10;100.00;101114.47;4985647;28;20114;-89
2021/01/03 01:15:17;;;;;;;194.57;66.68;;;;;;;2.10;100.00;101117.97;4973689;28;20062;-89
2021/01/03 01:17:51;;;;;;;179.13;59.50;;;;;;;2.10;100.00;101125.03;5009940;28;20041;-90
2021/01/03 01:20:23;;;;;;;186.73;64.85;;;;;;;2.09;100.00;101123.38;5004102;28;20042;-87
2021/01/03 01:22:49;;;;;;;184.90;63.80;;;;;;;2.09;100.00;101123.38;5006157;28;20483;-88
2021/01/03 01:25:16;;;;;;;185.23;63.63;;;;;;;2.09;100.00;101112.78;4987202;28;20037;-87
2021/01/03 01:27:42;;;;;;;189.60;65.93;;;;;;;2.08;100.00;101111.94;5002209;28;20072;-88
2021/01/03 01:30:11;;;;;;;179.43;67.40;;;;;;;2.11;100.00;101116.19;4959723;28;20406;-87
2021/01/03 01:32:37;;;;;;;187.07;67.88;;;;;;;2.13;100.00;101122.19;4992384;28;20470;-87
2021/01/03 01:35:04;;;;;;;187.20;66.75;;;;;;;2.12;100.00;101121.34;5007637;28;20048;-89
2021/01/03 01:37:29;;;;;;;179.52;67.20;;;;;;;2.12;100.00;101124.00;4988888;28;20108;-89
2021/01/03 01:39:57;;;;;;;171.32;63.72;;;;;;;2.12;100.00;101124.00;4997325;28;20124;-88
2021/01/03 01:42:22;;;;;;;174.65;65.50;;;;;;;2.11;100.00;101118.81;5009947;28;20441;-90
2021/01/03 01:44:50;;;;;;;166.95;61.58;;;;;;;2.12;100.00;101117.88;4998979;28;20104;-90
2021/01/03 01:47:21;;;;;;;165.00;60.88;;;;;;;2.13;100.00;101119.53;4974828;28;20044;-88
2021/01/03 01:49:47;;;;;;;166.23;62.08;;;;;;;2.11;100.00;101119.66;4992449;28;20058;-89
2021/01/03 01:52:18;;;;;;;169.65;59.70;;;;;;;2.12;100.00;101123.16;5006446;28;20104;-92
2021/01/03 01:54:54;;;;;;;171.02;64.88;;;;;;;2.11;100.00;101127.63;5007326;28;20218;-86
2021/01/03 01:57:35;;;;;;;171.45;61.63;;;;;;;2.11;100.00;101121.47;5006197;28;20068;-88
2021/01/03 02:00:06;;;;;;;176.88;62.65;;;;;;;2.11;100.00;101126.78;5011039;28;20038;-90
2021/01/03 02:02:55;;;;;;;165.63;61.45;;;;;;;2.10;100.00;101119.75;4997597;28;20510;-86
2021/01/03 02:05:31;;;;;;;181.43;61.45;;;;;;;2.09;100.00;101124.22;4996312;28;20041;-87
2021/01/03 02:08:03;;;;;;;163.00;58.92;;;;;;;2.07;100.00;101126.09;4990997;28;20044;-88
2021/01/03 02:10:33;;;;;;;171.63;63.17;;;;;;;2.08;100.00;101126.97;4987031;28;20044;-88
2021/01/03 02:13:08;;;;;;;177.95;63.63;;;;;;;2.09;100.00;101128.66;4991341;28;20081;-89
2021/01/03 02:15:35;;;;;;;171.68;62.90;;;;;;;2.09;100.00;101120.72;5004784;28;20128;-89
2021/01/03 02:18:04;;;;;;;169.68;62.10;;;;;;;2.08;100.00;101119.03;4991391;28;20449;-87
2021/01/03 02:20:59;;;;;;;180.20;66.93;;;;;;;2.08;100.00;101121.69;4996009;28;20042;-91
2021/01/03 02:24:13;;;;;;;178.40;63.85;;;;;;;2.06;100.00;101123.56;4970159;28;20046;-86
2021/01/03 02:26:43;;;;;;;162.25;60.17;;;;;;;2.03;100.00;101125.47;4968355;28;20045;-89
2021/01/03 02:29:11;;;;;;;149.48;59.58;;;;;;;2.05;100.00;101116.59;4986238;28;20251;-90
2021/01/03 02:31:42;;;;;;;155.18;59.45;;;;;;;2.06;100.00;101118.28;5007593;28;20486;-87
2021/01/03 02:34:09;;;;;;;157.95;58.75;;;;;;;2.05;100.00;101119.22;5008324;28;20483;-89
2021/01/03 02:36:43;;;;;;;155.45;59.47;;;;;;;2.07;100.00;101115.50;5013965;28;20045;-86
2021/01/03 02:39:16;;;;;;;154.85;58.92;;;;;;;2.06;100.00;101118.28;4989315;28;20034;-86
2021/01/03 02:41:41;;;;;;;141.30;52.75;;;;;;;2.02;100.00;101113.19;5003925;28;20073;-86
2021/01/03 02:44:07;;;;;;;148.05;57.25;;;;;;;2.08;100.00;101121.69;4972874;28;20042;-86
2021/01/03 02:46:37;;;;;;;147.00;57.60;;;;;;;2.07;100.00;101120.81;4977350;28;20050;-91
2021/01/03 02:49:03;;;;;;;147.48;58.70;;;;;;;2.09;100.00;101118.06;4985250;28;20049;-85
2021/01/03 02:51:37;;;;;;;136.18;54.40;;;;;;;2.06;100.00;101118.28;5004122;28;20044;-88
2021/01/03 02:54:05;;;;;;;135.80;53.95;;;;;;;2.07;100.00;101114.66;4996930;28;20042;-87
2021/01/03 02:56:31;;;;;;;126.15;54.40;;;;;;;2.09;100.00;101118.06;4992875;28;20056;-88
2021/01/03 02:58:57;;;;;;;134.05;54.70;;;;;;;2.06;100.00;101113.81;5004893;28;20434;-90
2021/01/03 03:01:22;;;;;;;123.85;50.38;;;;;;;2.09;100.00;101112.78;4973490;28;20046;-88
2021/01/03 03:03:47;;;;;;;129.35;52.63;;;;;;;2.10;100.00;101119.75;4978474;28;20164;-86
2021/01/03 03:06:13;;;;;;;122.97;52.20;;;;;;;2.12;100.00;101108.13;4957376;28;20041;-90
2021/01/03 03:08:39;;;;;;;122.13;50.85;;;;;;;2.10;100.00;101114.47;5004179;28;20048;-87
2021/01/03 03:11:06;;;;;;;120.63;50.03;;;;;;;2.09;100.00;101113.63;4994336;28;20038;-88
2021/01/03 03:13:31;;;;;;;124.78;52.50;;;;;;;2.09;100.00;101113.63;4990739;28;20491;-90
2021/01/03 03:16:04;;;;;;;119.15;53.50;;;;;;;2.11;100.00;101116.19;5004619;28;20057;-88
2021/01/03 03:18:31;;;;;;;123.63;49.45;;;;;;;2.08;100.00;101113.72;4974584;28;20048;-88
2021/01/03 03:20:58;;;;;;;123.57;54.20;;;;;;;2.11;100.00;101110.88;4991591;28;20042;-88
2021/01/03 03:23:30;;;;;;;123.00;50.33;;;;;;;2.10;100.00;101109.16;4982028;28;20061;-86
2021/01/03 03:25:55;;;;;;;120.63;50.72;;;;;;;2.10;100.00;101110.03;5006270;28;20196;-86
2021/01/03 03:28:20;;;;;;;120.28;52.85;;;;;;;2.12;100.00;101108.13;4985647;28;20550;-88
2021/01/03 03:30:46;;;;;;;121.40;50.95;;;;;;;2.13;100.00;101111.59;4971038;28;20045;-86
2021/01/03 03:33:12;;;;;;;124.53;54.72;;;;;;;2.14;100.00;101114.16;4987534;28;20049;-87
2021/01/03 03:35:37;;;;;;;115.38;50.33;;;;;;;2.14;100.00;101103.56;5023035;28;20088;-89
2021/01/03 03:38:05;;;;;;;134.23;56.58;;;;;;;2.15;100.00;101110.56;4997612;28;20378;-86
2021/01/03 03:40:31;;;;;;;135.63;56.20;;;;;;;2.14;100.00;101106.22;4994456;28;20049;-87
2021/01/03 03:42:57;;;;;;;131.48;57.83;;;;;;;2.16;100.00;101116.72;4994567;28;20041;-88
2021/01/03 03:45:23;;;;;;;135.27;57.65;;;;;;;2.16;100.00;101106.13;4975857;28;20060;-88
2021/01/03 03:47:58;;;;;;;130.43;54.05;;;;;;;2.13;100.00;101106.31;4976085;28;20043;-86
2021/01/03 03:50:24;;;;;;;139.63;60.00;;;;;;;2.15;100.00;101107.91;4991449;28;20050;-88
2021/01/03 03:52:50;;;;;;;132.25;55.83;;;;;;;2.16;100.00;101109.63;4997600;28;20046;-87
2021/01/03 03:55:22;;;;;;;134.75;59.65;;;;;;;2.16;100.00;101112.28;5011417;28;20038;-88
2021/01/03 03:57:49;;;;;;;140.13;61.97;;;;;;;2.16;100.00;101109.63;4997564;28;20095;-86
2021/01/03 04:00:23;;;;;;;138.20;59.47;;;;;;;2.16;100.00;101111.44;4997393;28;20142;-86
2021/01/03 04:02:49;;;;;;;145.57;59.20;;;;;;;2.18;100.00;101109.50;4994418;28;20049;-91
2021/01/03 04:05:19;;;;;;;145.23;62.05;;;;;;;2.19;100.00;101113.88;4997472;28;20058;-88
2021/01/03 04:07:44;;;;;;;140.77;56.38;;;;;;;2.16;100.00;101114.06;4984286;28;20030;-86
2021/01/03 04:10:10;;;;;;;148.93;62.10;;;;;;;2.18;100.00;101107.69;4999356;28;20045;-91
2021/01/03 04:12:36;;;;;;;137.02;58.25;;;;;;;2.18;100.00;101106.84;5013246;28;20406;-89
2021/01/03 04:15:12;;;;;;;140.40;61.30;;;;;;;2.17;100.00;101108.66;4989952;28;20063;-92
2021/01/03 04:17:39;;;;;;;145.30;61.88;;;;;;;2.18;100.00;101109.50;4998668;28;20073;-90
2021/01/03 04:20:07;;;;;;;141.88;57.65;;;;;;;2.18;100.00;101112.16;4998705;28;20543;-88
2021/01/03 04:22:32;;;;;;;141.68;63.45;;;;;;;2.18;100.00;101107.69;4991613;28;20057;-89
2021/01/03 04:24:58;;;;;;;148.85;63.47;;;;;;;2.19;100.00;101103.28;4996870;28;20046;-89
2021/01/03 04:27:24;;;;;;;143.10;62.67;;;;;;;2.16;100.00;101104.31;4980612;28;20037;-88
2021/01/03 04:29:54;;;;;;;150.70;63.95;;;;;;;2.18;100.00;101098.91;5013450;28;20057;-86
2021/01/03 04:32:21;;;;;;;149.43;63.08;;;;;;;2.17;100.00;101100.72;4981929;28;20376;-90
2021/01/03 04:34:52;;;;;;;147.43;63.25;;;;;;;2.19;100.00;101108.56;4964455;28;20050;-88
2021/01/03 04:37:28;;;;;;;145.40;63.28;;;;;;;2.17;100.00;101102.53;4982717;28;20045;-88
2021/01/03 04:39:54;;;;;;;133.93;60.40;;;;;;;2.18;100.00;101102.41;4996141;28;20133;-90
2021/01/03 04:42:24;;;;;;;136.85;61.13;;;;;;;2.19;100.00;101100.63;4977839;28;20038;-91
2021/01/03 04:44:59;;;;;;;130.43;54.53;;;;;;;2.16;100.00;101095.53;5015858;28;20061;-92
2021/01/03 04:47:32;;;;;;;134.85;56.92;;;;;;;2.16;100.00;101109.63;5015948;28;20193;-89
2021/01/03 04:50:22;;;;;;;139.73;60.67;;;;;;;2.16;100.00;101109.63;5014356;28;20121;-89
2021/01/03 04:53:24;;;;;;;129.20;58.95;;;;;;;2.17;100.00;101110.47;4959285;28;20100;-90
2021/01/03 04:56:15;;;;;;;129.13;57.28;;;;;;;2.11;100.00;101110.88;5019359;28;20124;-89
2021/01/03 04:59:00;;;;;;;122.53;59.17;;;;;;;2.14;100.00;101108.03;5008173;28;20038;-93
2021/01/03 05:01:38;;;;;;;138.25;58.00;;;;;;;2.15;100.00;101110.56;4997525;28;20045;-92
2021/01/03 05:04:41;;;;;;;140.90;60.63;;;;;;;2.15;100.00;101113.19;5003743;28;20026;-89
2021/01/03 05:07:23;;;;;;;138.25;57.25;;;;;;;2.13;100.00;101119.53;4995857;28;20293;-89
2021/01/03 05:09:51;;;;;;;129.85;56.20;;;;;;;2.11;100.00;101118.81;5005494;28;20050;-87
2021/01/03 05:12:33;;;;;;;136.60;58.20;;;;;;;2.10;100.00;101117.09;5004414;28;20049;-86
2021/01/03 05:15:11;;;;;;;130.00;58.83;;;;;;;2.12;100.00;101125.81;4980070;28;20080;-87
2021/01/03 05:17:37;;;;;;;141.38;63.67;;;;;;;2.11;100.00;101121.47;4996974;28;20049;-91
2021/01/03 05:20:05;;;;;;;132.38;60.90;;;;;;;2.11;100.00;101122.31;5007892;28;20062;-88
2021/01/03 05:22:37;;;;;;;130.90;60.95;;;;;;;2.09;100.00;101123.38;4993719;28;20042;-89
2021/01/03 05:25:05;;;;;;;133.60;55.80;;;;;;;2.12;100.00;101131.09;4984531;28;20048;-90
2021/01/03 05:27:32;;;;;;;130.45;58.22;;;;;;;2.11;100.00;101132.06;4994666;28;20045;-90
2021/01/03 05:30:30;;;;;;;128.93;54.95;;;;;;;2.11;100.00;101134.72;4993486;28;20064;-87
2021/01/03 05:33:12;;;;;;;123.03;54.80;;;;;;;2.07;100.00;101128.75;4952240;28;20041;-88
2021/01/03 05:35:41;;;;;;;112.25;51.55;;;;;;;2.06;100.00;101134.16;4979702;28;20042;-90
2021/01/03 05:38:07;;;;;;;108.68;48.95;;;;;;;2.09;100.00;101144.53;4990416;28;20042;-89
2021/01/03 05:40:39;;;;;;;108.18;51.95;;;;;;;2.10;100.00;101138.28;5009836;28;20030;-87
2021/01/03 05:43:22;;;;;;;109.82;49.08;;;;;;;2.10;100.00;101133.00;4999986;28;20038;-88
2021/01/03 05:46:18;;;;;;;95.47;47.05;;;;;;;2.08;100.00;101137.56;4993464;28;20449;-86
2021/01/03 05:48:58;;;;;;;94.38;46.33;;;;;;;2.06;100.00;101139.44;4976693;28;20046;-90
2021/01/03 05:51:57;;;;;;;83.88;43.55;;;;;;;2.08;100.00;101142.84;4991725;28;20054;-88
2021/01/03 05:54:30;;;;;;;84.30;41.65;;;;;;;2.06;100.00;101150.88;4998012;28;20129;-91
2021/01/03 05:57:04;;;;;;;78.80;39.53;;;;;;;2.07;100.00;101152.56;5010197;28;20046;-89
2021/01/03 05:59:30;;;;;;;85.90;42.78;;;;;;;2.09;100.00;101147.19;5015687;28;20061;-92
2021/01/03 06:02:25;;;;;;;75.97;38.90;;;;;;;2.09;100.00;101147.19;5010371;28;20482;-87
2021/01/03 06:05:06;;;;;;;79.55;39.30;;;;;;;2.06;100.00;101145.59;4978240;28;20050;-86
2021/01/03 06:07:34;;;;;;;72.70;36.33;;;;;;;2.02;100.00;101155.53;5012498;28;20037;-89
2021/01/03 06:09:59;;;;;;;70.80;36.50;;;;;;;2.07;100.00;101157.03;5015736;28;20046;-92
2021/01/03 06:12:27;;;;;;;67.88;35.97;;;;;;;2.08;100.00;101162.22;4994213;28;20042;-87
2021/01/03 06:14:56;;;;;;;68.85;35.95;;;;;;;2.12;100.00;101165.53;4979514;28;20512;-87
2021/01/03 06:17:45;;;;;;;74.63;37.92;;;;;;;2.12;100.00;101166.38;4997459;28;20037;-91
2021/01/03 06:20:23;;;;;;;70.80;38.20;;;;;;;2.13;100.00;101164.56;4990225;28;20034;-89
2021/01/03 06:22:55;;;;;;;72.40;38.60;;;;;;;2.09;100.00;101171.03;4992262;28;20435;-89
2021/01/03 06:25:41;;;;;;;74.82;39.83;;;;;;;2.10;100.00;101167.41;4993579;28;20042;-90
2021/01/03 06:28:13;;;;;;;70.13;38.30;;;;;;;2.07;100.00;101164.97;4993992;28;20076;-89
2021/01/03 06:30:42;;;;;;;66.80;37.42;;;;;;;2.07;100.00;101167.63;4992692;28;20046;-92
2021/01/03 06:33:40;;;;;;;66.75;35.97;;;;;;;2.01;100.00;101177.69;5011190;28;20398;-90
2021/01/03 06:36:17;;;;;;;67.68;35.67;;;;;;;2.02;100.00;101171.41;4957828;28;20065;-88
2021/01/03 06:38:58;;;;;;;64.25;34.30;;;;;;;1.96;100.00;101177.13;5002562;28;20042;-85
2021/01/03 06:41:29;;;;;;;63.78;35.08;;;;;;;2.00;100.00;101177.75;5011986;28;20057;-88
2021/01/03 06:44:18;;;;;;;57.75;34.42;;;;;;;2.00;100.00;101175.97;5009861;28;20081;-86
2021/01/03 06:46:44;;;;;;;58.35;31.48;;;;;;;1.96;100.00;101174.47;4999022;28;20065;-88
2021/01/03 06:49:15;;;;;;;59.45;32.80;;;;;;;2.00;100.00;101186.53;5014870;28;20077;-89
2021/01/03 06:52:00;;;;;;;59.60;31.33;;;;;;;1.99;100.00;101189.31;4983850;28;20073;-90
2021/01/03 06:54:35;;;;;;;58.05;31.90;;;;;;;2.02;100.00;101189.97;4993554;28;20479;-92
2021/01/03 06:57:29;;;;;;;52.70;30.55;;;;;;;2.02;100.00;101189.97;5011446;28;20041;-87
2021/01/03 07:00:14;;;;;;;53.97;27.50;;;;;;;2.00;100.00;101186.53;4940519;28;20487;-88
2021/01/03 07:02:43;;;;;;;56.50;28.63;;;;;;;1.99;100.00;101194.59;5001924;28;20045;-89
2021/01/03 07:05:09;;;;;;;;;;;;;;;2.00;100.00;101194.50;5011144;28;20045;-86
2021/01/03 07:07:37;;;;;;;58.30;30.98;;;;;;;1.93;100.00;101187.06;4993064;28;19917;-91
2021/01/03 07:10:06;;;;;;;50.28;28.85;;;;;;;1.95;100.00;101191.28;4993845;28;20052;-87
2021/01/03 07:12:43;;;;;;;44.28;25.23;;;;;;;1.96;100.00;101185.06;5019519;28;20045;-85
2021/01/03 07:15:26;;;;;;;47.35;26.75;;;;;;;1.99;100.00;101190.16;5012429;28;20046;-91
2021/01/03 07:17:52;;;;;;;49.20;27.35;;;;;;;2.05;100.00;101180.97;4955270;28;20125;-90
2021/01/03 07:20:31;;;;;;;42.80;24.33;;;;;;;2.01;100.00;101188.25;4997168;28;20054;-88
2021/01/03 07:23:09;;;;;;;;;;;;;;;2.01;100.00;101190.91;4995158;28;20064;-89
2021/01/03 07:25:45;;;;;;;37.65;23.08;;;;;;;1.93;100.00;101187.91;4991239;28;19932;-89
2021/01/03 07:28:18;;;;;;;40.40;22.00;;;;;;;1.91;100.00;101189.78;4991111;28;20054;-85
2021/01/03 07:31:13;;;;;;;39.78;22.48;;;;;;;1.98;100.00;101192.88;4978224;28;20053;-88
2021/01/03 07:33:56;;;;;;;38.70;20.17;;;;;;;2.00;100.00;101189.19;4992560;28;20395;-92
2021/01/03 07:36:38;;;;;;;32.47;19.05;;;;;;;2.00;100.00;101196.28;5016289;28;20107;-88
2021/01/03 07:39:14;;;;;;;33.35;18.80;;;;;;;2.05;100.00;101193.38;5008391;28;20125;-89
2021/01/03 07:41:40;;;;;;;28.35;16.83;;;;;;;2.05;100.00;101190.72;5007723;28;20058;-86
2021/01/03 07:44:08;;;;;;;27.73;16.58;;;;;;;2.08;100.00;101195.81;4996775;28;20029;-87
2021/01/03 07:46:47;;;;;;;30.70;18.02;;;;;;;2.11;100.00;101195.59;4996563;28;20107;-89
2021/01/03 07:49:36;;;;;;;26.85;15.43;;;;;;;2.10;100.00;101194.75;5015814;28;20041;-87
2021/01/03 07:52:30;;;;;;;25.77;15.93;;;;;;;2.11;100.00;101190.31;4999073;28;20402;-90
2021/01/03 07:54:56;;;;;;;23.90;13.98;;;;;;;2.07;100.00;101189.63;4968576;28;20047;-90
2021/01/03 07:57:26;;;;;;;26.45;14.57;;;;;;;2.10;100.00;101193.88;4969279;28;20432;-88
2021/01/03 07:59:55;;;;;;;24.58;14.25;;;;;;;2.07;99.30;101194.09;5002368;28;20490;-91
2021/01/03 08:02:31;;;;;;;25.90;14.63;;;;;;;2.10;100.00;101191.25;4998877;28;20046;-85
2021/01/03 08:04:59;;;;;;;20.80;13.32;;;;;;;2.12;99.55;101197.28;5018806;28;20034;-89
2021/01/03 08:07:25;;;;;;;25.03;14.33;;;;;;;2.10;99.98;101204.47;4998899;28;20107;-89
2021/01/03 08:09:53;;;;;;;24.75;13.57;;;;;;;2.11;100.00;101206.19;4956841;28;20046;-86
2021/01/03 08:12:28;;;;;;;20.52;12.70;;;;;;;2.08;100.00;101201.09;4990247;28;20129;-87
2021/01/03 08:15:10;;;;;;;20.63;12.93;;;;;;;2.11;100.00;101198.25;5011849;28;20038;-88
2021/01/03 08:17:45;;;;;;;20.83;13.35;;;;;;;2.12;100.00;101199.94;4983469;28;20038;-88
2021/01/03 08:20:23;;;;;;;18.58;11.95;;;;;;;2.11;100.00;101206.19;5008586;28;20044;-88
2021/01/03 08:22:49;;;;;;;21.20;11.85;;;;;;;2.08;99.82;101212.53;4992391;28;20114;-89
2021/01/03 08:25:29;;;;;;;19.13;11.90;;;;;;;2.03;98.46;101204.88;5005309;28;20050;-86
2021/01/03 08:28:11;;;;;;;18.30;10.95;;;;;;;2.08;98.58;101215.19;4995567;28;20035;-90
2021/01/03 08:30:38;;;;;;;18.08;10.45;;;;;;;2.11;98.44;101216.78;4978585;28;20136;-90
2021/01/03 08:33:21;;;;;;;17.55;10.98;;;;;;;2.12;98.61;101221.97;4996761;28;20129;-85
2021/01/03 08:35:47;;;;;;;18.38;11.43;;;;;;;2.12;98.52;101226.41;4986518;28;20111;-89
2021/01/03 08:38:13;;;;;;;18.40;10.93;;;;;;;2.12;98.54;101226.41;4996239;28;20046;-85
2021/01/03 08:40:42;;;;;;;16.88;10.65;;;;;;;2.14;97.74;101228.03;4995048;28;20049;-87
2021/01/03 08:43:14;;;;;;;16.67;11.00;;;;;;;2.11;96.64;101224.72;4998263;28;20124;-90
2021/01/03 08:45:41;;;;;;;18.23;11.45;;;;;;;2.14;98.28;101227.19;4982048;28;20072;-90
2021/01/03 08:48:19;;;;;;;18.45;11.18;;;;;;;2.18;98.97;101233.97;4999446;28;20042;-90
2021/01/03 08:50:45;;;;;;;18.50;12.15;;;;;;;2.16;98.56;101231.44;4993699;28;20096;-91
2021/01/03 08:53:21;;;;;;;19.23;11.80;;;;;;;2.14;98.42;101228.03;4993331;28;20042;-89
2021/01/03 08:55:47;;;;;;;18.23;11.40;;;;;;;2.12;97.97;101227.25;4994747;28;20132;-89
2021/01/03 08:58:15;;;;;;;18.60;12.32;;;;;;;2.16;99.60;101235.88;5001843;28;20045;-89
2021/01/03 09:00:45;;;;;;;18.55;12.23;;;;;;;2.14;99.32;101235.13;4970884;28;20058;-89
2021/01/03 09:03:19;;;;;;;18.38;11.77;;;;;;;2.17;100.00;101237.56;5010934;28;20460;-88
2021/01/03 09:05:48;;;;;;;17.63;11.70;;;;;;;2.14;98.20;101237.75;4995712;28;20526;-88
2021/01/03 09:08:31;;;;;;;;;;;;;;;2.13;97.84;101246.63;4999095;28;20046;-89
2021/01/03 09:11:05;;;;;;;20.67;11.75;;;;;;;2.09;99.45;101240.69;5008426;28;19948;-90
2021/01/03 09:13:32;;;;;;;18.33;12.60;;;;;;;2.11;100.00;101243.25;4995691;28;20664;-87
2021/01/03 09:16:07;;;;;;;16.63;11.40;;;;;;;2.13;99.91;101246.63;4999932;28;20045;-86
2021/01/03 09:18:39;;;;;;;20.35;15.68;;;;;;;2.15;98.72;101244.75;5009666;28;20044;-89
2021/01/03 09:21:08;;;;;;;16.50;11.55;;;;;;;2.19;99.68;101249.75;4991935;28;20042;-93
2021/01/03 09:23:37;;;;;;;;;;;;;;;2.18;98.06;101249.84;5010923;28;20038;-90
2021/01/03 09:26:03;;;;;;;18.75;11.63;;;;;;;2.14;99.17;101253.66;5012601;28;19921;-91
2021/01/03 09:28:34;;;;;;;18.15;11.77;;;;;;;2.17;99.98;101253.47;5011510;28;20030;-86
2021/01/03 09:31:25;;;;;;;17.52;11.02;;;;;;;2.17;97.78;101250.81;5011494;28;20038;-88
2021/01/03 09:33:54;;;;;;;18.73;12.35;;;;;;;2.20;98.98;101258.56;4980415;28;20046;-90
2021/01/03 09:36:40;;;;;;;17.83;11.30;;;;;;;2.21;98.08;101261.09;5005157;28;20049;-90
2021/01/03 09:39:08;;;;;;;17.67;11.93;;;;;;;2.22;99.21;101265.44;5023047;28;20041;-85
2021/01/03 09:41:47;;;;;;;18.95;11.38;;;;;;;2.20;98.39;101263.84;5006001;28;20050;-84
2021/01/03 09:44:35;;;;;;;17.50;10.70;;;;;;;2.24;98.19;101265.34;5010228;28;20465;-85
2021/01/03 09:47:07;;;;;;;30.50;22.60;;;;;;;2.25;98.93;101264.41;4994703;28;20050;-85
2021/01/03 09:49:51;;;;;;;19.27;13.00;;;;;;;2.26;98.21;101263.44;5020826;28;20273;-85
2021/01/03 09:52:33;;;;;;;18.00;12.27;;;;;;;2.28;97.84;101268.66;5003192;28;20103;-87
2021/01/03 09:55:14;;;;;;;30.90;18.83;;;;;;;2.28;97.79;101266.84;5023411;28;20049;-85
2021/01/03 09:57:54;;;;;;;44.60;25.63;;;;;;;2.28;97.50;101266.84;5027899;28;20121;-85
2021/01/03 10:00:43;;;;;;;25.38;16.13;;;;;;;2.31;97.74;101264.00;5004109;28;20093;-87
2021/01/03 10:03:35;;;;;;;18.17;12.40;;;;;;;2.32;98.77;101263.03;5004960;28;20046;-84
2021/01/03 10:06:24;;;;;;;18.67;11.10;;;;;;;2.31;98.20;101268.47;4982310;28;20057;-85
2021/01/03 10:09:11;;;;;;;23.63;16.45;;;;;;;2.33;98.79;101259.47;5014500;28;20098;-87
2021/01/03 10:11:37;;;;;;;19.48;13.50;;;;;;;2.36;99.42;101269.84;5014071;28;20046;-94
2021/01/03 10:14:09;;;;;;;17.17;10.95;;;;;;;2.33;97.89;101270.06;5001303;28;20459;-85
2021/01/03 10:16:36;;;;;;;14.35;10.00;;;;;;;2.36;98.00;101266.34;5011145;28;20399;-88
2021/01/03 10:19:13;;;;;;;15.23;10.32;;;;;;;2.39;97.16;101271.47;4992162;28;20041;-90
2021/01/03 10:21:40;;;;;;;17.60;11.75;;;;;;;2.41;97.75;101261.59;4993275;28;20041;-89
2021/01/03 10:24:23;;;;;;;15.50;10.07;;;;;;;2.44;98.27;101261.41;5002039;28;20129;-89
2021/01/03 10:27:04;;;;;;;20.45;12.25;;;;;;;2.42;97.86;101261.50;5022267;28;20041;-87
2021/01/03 10:29:33;;;;;;;15.70;10.65;;;;;;;2.49;99.33;101270.75;4992325;28;20072;-90
2021/01/03 10:31:59;;;;;;;18.33;12.40;;;;;;;2.46;97.94;101265.66;5012738;28;20514;-88
2021/01/03 10:34:26;;;;;;;17.02;12.00;;;;;;;2.46;97.10;101270.94;4998238;28;20048;-87
2021/01/03 10:36:52;;;;;;;19.25;13.23;;;;;;;2.50;97.71;101266.28;4978734;28;20038;-87
2021/01/03 10:39:18;;;;;;;19.70;12.15;;;;;;;2.53;98.09;101265.25;5009542;28;20062;-93
2021/01/03 10:41:43;;;;;;;16.38;9.60;;;;;;;2.51;96.33;101262.72;4992011;28;20125;-92
2021/01/03 10:44:10;;;;;;;16.65;10.68;;;;;;;2.55;97.59;101258.88;4997993;28;20037;-88
2021/01/03 10:46:39;;;;;;;17.73;11.10;;;;;;;2.52;96.67;101261.75;5008379;28;20033;-90
2021/01/03 10:49:06;;;;;;;19.55;12.50;;;;;;;2.55;97.30;101258.88;4993419;28;20512;-93
2021/01/03 10:51:37;;;;;;;17.02;12.07;;;;;;;2.54;96.57;101256.34;4995424;28;20050;-86
2021/01/03 10:54:05;;;;;;;15.85;11.00;;;;;;;2.59;97.45;101256.88;4998038;28;20137;-92
2021/01/03 10:56:30;;;;;;;20.50;13.57;;;;;;;2.56;97.33;101254.44;5014670;28;20038;-88
2021/01/03 10:58:57;;;;;;;17.83;11.68;;;;;;;2.60;97.72;101242.69;4997922;28;20371;-85
2021/01/03 11:01:23;;;;;;;16.65;11.48;;;;;;;2.57;97.18;101251.69;5016714;28;20042;-89
2021/01/03 11:03:51;;;;;;;16.92;11.07;;;;;;;2.59;97.14;101240.97;5013752;28;20061;-88
2021/01/03 11:06:18;;;;;;;29.05;19.05;;;;;;;2.58;96.29;101255.19;5008325;28;20049;-90
2021/01/03 11:08:46;;;;;;;19.50;12.75;;;;;;;2.64;97.29;101241.53;5017385;28;20351;-86
2021/01/03 11:11:22;;;;;;;21.98;13.60;;;;;;;2.62;96.79;101246.09;5002616;28;20454;-88
2021/01/03 11:13:50;;;;;;;17.70;11.85;;;;;;;2.64;97.62;101247.69;4969964;28;20104;-86
2021/01/03 11:16:15;;;;;;;16.45;11.55;;;;;;;2.64;97.92;101236.22;4992716;28;20038;-86
2021/01/03 11:18:41;;;;;;;21.13;11.98;;;;;;;2.60;97.02;101251.50;4984850;28;20035;-93
2021/01/03 11:21:13;;;;;;;19.08;12.15;;;;;;;2.63;97.22;101245.16;4975873;28;20038;-90
2021/01/03 11:23:41;;;;;;;16.63;10.25;;;;;;;2.62;96.78;101230.22;4997653;28;20077;-88
2021/01/03 11:26:06;;;;;;;17.27;10.32;;;;;;;2.63;96.20;101239.84;4992161;28;20045;-89
2021/01/03 11:28:32;;;;;;;16.25;9.82;;;;;;;2.65;96.70;101240.59;4992017;28;20069;-89
2021/01/03 11:30:57;;;;;;;26.33;15.32;;;;;;;2.65;96.80;101232.66;4993204;28;20038;-89
2021/01/03 11:33:23;;;;;;;18.83;11.70;;;;;;;2.66;96.10;101231.69;4976057;28;20113;-88